sensor_id;sensor_type;location;lat;lon;timestamp;temperature;humidity
15556;DHT22;7879;48.660;9.116;2024-02-16T00:02:24;7.80;99.90
15556;DHT22;7879;48.660;9.116;2024-02-16T00:04:51;7.80;99.90
15556;DHT22;7879;48.660;9.116;2024-02-16T00:07:18;7.80;99.90
15556;DHT22;7879;48.660;9.116;2024-02-16T00:09:45;7.80;99.90
15556;DHT22;7879;48.660;9.116;2024-02-16T00:12:12;7.80;99.90
15556;DHT22;7879;48.660;9.116;2024-02-16T00:14:39;7.80;99.90
15556;DHT22;7879;48.660;9.116;2024-02-16T00:17:06;7.70;99.90
15556;DHT22;7879;48.660;9.116;2024-02-16T00:19:33;7.70;99.90
15556;DHT22;7879;48.660;9.116;2024-02-16T00:22:00;7.70;99.90
15556;DHT22;7879;48.660;9.116;2024-02-16T00:24:27;7.70;99.90
15556;DHT22;7879;48.660;9.116;2024-02-16T00:26:54;7.70;99.90
15556;DHT22;7879;48.660;9.116;2024-02-16T00:29:21;7.70;99.90
15556;DHT22;7879;48.660;9.116;2024-02-16T00:31:48;7.70;99.90
15556;DHT22;7879;48.660;9.116;2024-02-16T00:34:15;7.70;99.90
15556;DHT22;7879;48.660;9.116;2024-02-16T00:36:43;7.70;99.90
15556;DHT22;7879;48.660;9.116;2024-02-16T00:39:10;7.70;99.90
15556;DHT22;7879;48.660;9.116;2024-02-16T00:41:37;7.60;99.90
15556;DHT22;7879;48.660;9.116;2024-02-16T00:44:04;7.60;99.90
15556;DHT22;7879;48.660;9.116;2024-02-16T00:46:31;7.70;99.90
15556;DHT22;7879;48.660;9.116;2024-02-16T00:48:58;7.70;99.90
15556;DHT22;7879;48.660;9.116;2024-02-16T00:51:26;7.60;99.90
15556;DHT22;7879;48.660;9.116;2024-02-16T00:53:53;7.60;99.90
15556;DHT22;7879;48.660;9.116;2024-02-16T00:56:20;7.70;99.90
15556;DHT22;7879;48.660;9.116;2024-02-16T00:58:47;7.70;99.90
15556;DHT22;7879;48.660;9.116;2024-02-16T01:01:14;7.70;99.90
15556;DHT22;7879;48.660;9.116;2024-02-16T01:03:41;7.70;99.90
15556;DHT22;7879;48.660;9.116;2024-02-16T01:06:09;7.70;99.90
15556;DHT22;7879;48.660;9.116;2024-02-16T01:08:37;7.70;99.90
15556;DHT22;7879;48.660;9.116;2024-02-16T01:11:04;7.70;99.90
15556;DHT22;7879;48.660;9.116;2024-02-16T01:13:31;7.70;99.90
15556;DHT22;7879;48.660;9.116;2024-02-16T01:15:59;7.60;99.90
15556;DHT22;7879;48.660;9.116;2024-02-16T01:18:28;7.60;99.90
15556;DHT22;7879;48.660;9.116;2024-02-16T01:20:55;7.60;99.90
15556;DHT22;7879;48.660;9.116;2024-02-16T01:23:22;7.60;99.90
15556;DHT22;7879;48.660;9.116;2024-02-16T01:25:49;7.60;99.90
15556;DHT22;7879;48.660;9.116;2024-02-16T01:28:16;7.50;99.90
15556;DHT22;7879;48.660;9.116;2024-02-16T01:30:43;7.50;99.90
15556;DHT22;7879;48.660;9.116;2024-02-16T01:33:10;7.50;99.90
15556;DHT22;7879;48.660;9.116;2024-02-16T01:35:39;7.50;99.90
15556;DHT22;7879;48.660;9.116;2024-02-16T01:38:06;7.60;99.90
15556;DHT22;7879;48.660;9.116;2024-02-16T01:40:33;7.60;99.90
15556;DHT22;7879;48.660;9.116;2024-02-16T01:43:00;7.60;99.90
15556;DHT22;7879;48.660;9.116;2024-02-16T01:45:27;7.50;99.90
15556;DHT22;7879;48.660;9.116;2024-02-16T01:47:54;7.60;99.90
15556;DHT22;7879;48.660;9.116;2024-02-16T01:50:22;7.60;99.90
15556;DHT22;7879;48.660;9.116;2024-02-16T01:52:50;7.60;99.90
15556;DHT22;7879;48.660;9.116;2024-02-16T01:55:17;7.60;99.90
15556;DHT22;7879;48.660;9.116;2024-02-16T01:57:46;7.60;99.90
15556;DHT22;7879;48.660;9.116;2024-02-16T02:00:14;7.60;99.90
15556;DHT22;7879;48.660;9.116;2024-02-16T02:02:44;7.60;99.90
15556;DHT22;7879;48.660;9.116;2024-02-16T02:05:12;7.60;99.90
15556;DHT22;7879;48.660;9.116;2024-02-16T02:07:40;7.60;99.90
15556;DHT22;7879;48.660;9.116;2024-02-16T02:10:08;7.60;99.90
15556;DHT22;7879;48.660;9.116;2024-02-16T02:12:35;7.70;99.90
15556;DHT22;7879;48.660;9.116;2024-02-16T02:15:02;7.70;99.90
15556;DHT22;7879;48.660;9.116;2024-02-16T02:17:30;7.70;99.90
15556;DHT22;7879;48.660;9.116;2024-02-16T02:19:57;7.70;99.90
15556;DHT22;7879;48.660;9.116;2024-02-16T02:22:23;7.70;99.90
15556;DHT22;7879;48.660;9.116;2024-02-16T02:24:50;7.80;99.90
15556;DHT22;7879;48.660;9.116;2024-02-16T02:27:17;7.70;99.90
15556;DHT22;7879;48.660;9.116;2024-02-16T02:29:44;7.70;99.90
15556;DHT22;7879;48.660;9.116;2024-02-16T02:32:11;7.80;99.90
15556;DHT22;7879;48.660;9.116;2024-02-16T02:34:39;7.80;99.90
15556;DHT22;7879;48.660;9.116;2024-02-16T02:37:07;7.70;99.90
15556;DHT22;7879;48.660;9.116;2024-02-16T02:39:34;7.70;99.90
15556;DHT22;7879;48.660;9.116;2024-02-16T02:42:01;7.70;99.90
15556;DHT22;7879;48.660;9.116;2024-02-16T02:44:29;7.70;99.90
15556;DHT22;7879;48.660;9.116;2024-02-16T02:46:58;7.70;99.90
15556;DHT22;7879;48.660;9.116;2024-02-16T02:49:25;7.70;99.90
15556;DHT22;7879;48.660;9.116;2024-02-16T02:51:52;7.70;99.90
15556;DHT22;7879;48.660;9.116;2024-02-16T02:54:19;7.70;99.90
15556;DHT22;7879;48.660;9.116;2024-02-16T02:56:46;7.70;99.90
15556;DHT22;7879;48.660;9.116;2024-02-16T02:59:13;7.70;99.90
15556;DHT22;7879;48.660;9.116;2024-02-16T03:01:40;7.70;99.90
15556;DHT22;7879;48.660;9.116;2024-02-16T03:04:07;7.70;99.90
15556;DHT22;7879;48.660;9.116;2024-02-16T03:06:34;7.70;99.90
15556;DHT22;7879;48.660;9.116;2024-02-16T03:09:01;7.70;99.90
15556;DHT22;7879;48.660;9.116;2024-02-16T03:11:28;7.70;99.90
15556;DHT22;7879;48.660;9.116;2024-02-16T03:13:55;7.70;99.90
15556;DHT22;7879;48.660;9.116;2024-02-16T03:16:22;7.70;99.90
15556;DHT22;7879;48.660;9.116;2024-02-16T03:18:49;7.70;99.90
15556;DHT22;7879;48.660;9.116;2024-02-16T03:21:16;7.70;99.90
15556;DHT22;7879;48.660;9.116;2024-02-16T03:23:44;7.70;99.90
15556;DHT22;7879;48.660;9.116;2024-02-16T03:26:15;7.80;99.90
15556;DHT22;7879;48.660;9.116;2024-02-16T03:28:48;7.70;99.90
15556;DHT22;7879;48.660;9.116;2024-02-16T03:31:22;7.70;99.90
15556;DHT22;7879;48.660;9.116;2024-02-16T03:33:50;7.70;99.90
15556;DHT22;7879;48.660;9.116;2024-02-16T03:36:21;7.60;99.90
15556;DHT22;7879;48.660;9.116;2024-02-16T03:38:48;7.60;99.90
15556;DHT22;7879;48.660;9.116;2024-02-16T03:41:22;7.60;99.90
15556;DHT22;7879;48.660;9.116;2024-02-16T03:43:50;7.60;99.90
15556;DHT22;7879;48.660;9.116;2024-02-16T03:46:18;7.60;99.90
15556;DHT22;7879;48.660;9.116;2024-02-16T03:48:45;7.50;99.90
15556;DHT22;7879;48.660;9.116;2024-02-16T03:51:12;7.50;99.90
15556;DHT22;7879;48.660;9.116;2024-02-16T03:53:39;7.50;99.90
15556;DHT22;7879;48.660;9.116;2024-02-16T03:56:06;7.50;99.90
15556;DHT22;7879;48.660;9.116;2024-02-16T03:58:35;7.50;99.90
15556;DHT22;7879;48.660;9.116;2024-02-16T04:01:02;7.50;99.90
15556;DHT22;7879;48.660;9.116;2024-02-16T04:03:29;7.50;99.90
15556;DHT22;7879;48.660;9.116;2024-02-16T04:05:56;7.50;99.90
15556;DHT22;7879;48.660;9.116;2024-02-16T04:08:23;7.50;99.90
15556;DHT22;7879;48.660;9.116;2024-02-16T04:10:50;7.50;99.90
15556;DHT22;7879;48.660;9.116;2024-02-16T04:13:17;7.50;99.90
15556;DHT22;7879;48.660;9.116;2024-02-16T04:15:44;7.60;99.90
15556;DHT22;7879;48.660;9.116;2024-02-16T04:18:11;7.60;99.90
15556;DHT22;7879;48.660;9.116;2024-02-16T04:20:39;7.60;99.90
15556;DHT22;7879;48.660;9.116;2024-02-16T04:23:07;7.60;99.90
15556;DHT22;7879;48.660;9.116;2024-02-16T04:25:34;7.60;99.90
15556;DHT22;7879;48.660;9.116;2024-02-16T04:28:02;7.60;99.90
15556;DHT22;7879;48.660;9.116;2024-02-16T04:30:29;7.60;99.90
15556;DHT22;7879;48.660;9.116;2024-02-16T04:32:56;7.60;99.90
15556;DHT22;7879;48.660;9.116;2024-02-16T04:35:23;7.60;99.90
15556;DHT22;7879;48.660;9.116;2024-02-16T04:37:50;7.60;99.90
15556;DHT22;7879;48.660;9.116;2024-02-16T04:40:17;7.60;99.90
15556;DHT22;7879;48.660;9.116;2024-02-16T04:42:44;7.60;99.90
15556;DHT22;7879;48.660;9.116;2024-02-16T04:45:11;7.60;99.90
15556;DHT22;7879;48.660;9.116;2024-02-16T04:47:39;7.50;99.90
15556;DHT22;7879;48.660;9.116;2024-02-16T04:50:07;7.50;99.90
15556;DHT22;7879;48.660;9.116;2024-02-16T04:52:38;7.50;99.90
15556;DHT22;7879;48.660;9.116;2024-02-16T04:55:07;7.50;99.90
15556;DHT22;7879;48.660;9.116;2024-02-16T04:57:34;7.50;99.90
15556;DHT22;7879;48.660;9.116;2024-02-16T05:00:02;7.50;99.90
15556;DHT22;7879;48.660;9.116;2024-02-16T05:02:29;7.50;99.90
15556;DHT22;7879;48.660;9.116;2024-02-16T05:04:56;7.50;99.90
15556;DHT22;7879;48.660;9.116;2024-02-16T05:07:28;7.50;99.90
15556;DHT22;7879;48.660;9.116;2024-02-16T05:09:55;7.40;99.90
15556;DHT22;7879;48.660;9.116;2024-02-16T05:12:25;7.40;99.90
15556;DHT22;7879;48.660;9.116;2024-02-16T05:14:53;7.40;99.90
15556;DHT22;7879;48.660;9.116;2024-02-16T05:17:20;7.40;99.90
15556;DHT22;7879;48.660;9.116;2024-02-16T05:19:49;7.40;99.90
15556;DHT22;7879;48.660;9.116;2024-02-16T05:22:16;7.40;99.90
15556;DHT22;7879;48.660;9.116;2024-02-16T05:24:48;7.40;99.90
15556;DHT22;7879;48.660;9.116;2024-02-16T05:27:15;7.40;99.90
15556;DHT22;7879;48.660;9.116;2024-02-16T05:29:44;7.40;99.90
15556;DHT22;7879;48.660;9.116;2024-02-16T05:32:11;7.30;99.90
15556;DHT22;7879;48.660;9.116;2024-02-16T05:34:39;7.30;99.90
15556;DHT22;7879;48.660;9.116;2024-02-16T05:37:06;7.30;99.90
15556;DHT22;7879;48.660;9.116;2024-02-16T05:39:36;7.30;99.90
15556;DHT22;7879;48.660;9.116;2024-02-16T05:42:23;7.30;99.90
15556;DHT22;7879;48.660;9.116;2024-02-16T05:44:50;7.30;99.90
15556;DHT22;7879;48.660;9.116;2024-02-16T05:47:18;7.30;99.90
15556;DHT22;7879;48.660;9.116;2024-02-16T05:49:45;7.30;99.90
15556;DHT22;7879;48.660;9.116;2024-02-16T05:52:13;7.20;99.90
15556;DHT22;7879;48.660;9.116;2024-02-16T05:54:47;7.20;99.90
15556;DHT22;7879;48.660;9.116;2024-02-16T05:57:15;7.20;99.90
15556;DHT22;7879;48.660;9.116;2024-02-16T05:59:43;7.20;99.90
15556;DHT22;7879;48.660;9.116;2024-02-16T06:02:12;7.20;99.90
15556;DHT22;7879;48.660;9.116;2024-02-16T06:04:39;7.10;99.90
15556;DHT22;7879;48.660;9.116;2024-02-16T06:07:07;7.20;99.90
15556;DHT22;7879;48.660;9.116;2024-02-16T06:09:34;7.10;99.90
15556;DHT22;7879;48.660;9.116;2024-02-16T06:12:03;7.10;99.90
15556;DHT22;7879;48.660;9.116;2024-02-16T06:14:31;7.10;99.90
15556;DHT22;7879;48.660;9.116;2024-02-16T06:16:58;7.10;99.90
15556;DHT22;7879;48.660;9.116;2024-02-16T06:19:26;7.10;99.90
15556;DHT22;7879;48.660;9.116;2024-02-16T06:21:54;7.00;99.90
15556;DHT22;7879;48.660;9.116;2024-02-16T06:24:24;7.00;99.90
15556;DHT22;7879;48.660;9.116;2024-02-16T06:26:51;7.00;99.90
15556;DHT22;7879;48.660;9.116;2024-02-16T06:29:23;7.00;99.90
15556;DHT22;7879;48.660;9.116;2024-02-16T06:31:50;7.00;99.90
15556;DHT22;7879;48.660;9.116;2024-02-16T06:34:18;7.00;99.90
15556;DHT22;7879;48.660;9.116;2024-02-16T06:36:46;7.00;99.90
15556;DHT22;7879;48.660;9.116;2024-02-16T06:39:14;7.00;99.90
15556;DHT22;7879;48.660;9.116;2024-02-16T06:41:44;7.00;99.90
15556;DHT22;7879;48.660;9.116;2024-02-16T06:44:15;6.90;99.90
15556;DHT22;7879;48.660;9.116;2024-02-16T06:46:45;6.80;99.90
15556;DHT22;7879;48.660;9.116;2024-02-16T06:49:12;6.80;99.90
15556;DHT22;7879;48.660;9.116;2024-02-16T06:51:39;6.80;99.90
15556;DHT22;7879;48.660;9.116;2024-02-16T06:54:06;6.80;99.90
15556;DHT22;7879;48.660;9.116;2024-02-16T06:56:34;6.80;99.90
15556;DHT22;7879;48.660;9.116;2024-02-16T06:59:02;6.80;99.90
15556;DHT22;7879;48.660;9.116;2024-02-16T07:01:29;6.80;99.90
15556;DHT22;7879;48.660;9.116;2024-02-16T07:03:56;6.80;99.90
15556;DHT22;7879;48.660;9.116;2024-02-16T07:06:23;6.80;99.90
15556;DHT22;7879;48.660;9.116;2024-02-16T07:08:50;6.80;99.90
15556;DHT22;7879;48.660;9.116;2024-02-16T07:11:17;6.90;99.90
15556;DHT22;7879;48.660;9.116;2024-02-16T07:13:45;6.90;99.90
15556;DHT22;7879;48.660;9.116;2024-02-16T07:16:13;6.90;99.90
15556;DHT22;7879;48.660;9.116;2024-02-16T07:18:40;6.90;99.90
15556;DHT22;7879;48.660;9.116;2024-02-16T07:21:09;6.90;99.90
15556;DHT22;7879;48.660;9.116;2024-02-16T07:23:38;7.00;99.90
15556;DHT22;7879;48.660;9.116;2024-02-16T07:26:05;7.00;99.90
15556;DHT22;7879;48.660;9.116;2024-02-16T07:28:33;7.00;99.90
15556;DHT22;7879;48.660;9.116;2024-02-16T07:31:00;7.00;99.90
15556;DHT22;7879;48.660;9.116;2024-02-16T07:33:27;7.10;99.90
15556;DHT22;7879;48.660;9.116;2024-02-16T07:35:55;7.10;99.90
15556;DHT22;7879;48.660;9.116;2024-02-16T07:38:23;7.10;99.90
15556;DHT22;7879;48.660;9.116;2024-02-16T07:40:50;7.20;99.90
15556;DHT22;7879;48.660;9.116;2024-02-16T07:43:17;7.20;99.90
15556;DHT22;7879;48.660;9.116;2024-02-16T07:45:45;7.30;99.90
15556;DHT22;7879;48.660;9.116;2024-02-16T07:48:13;7.30;99.90
15556;DHT22;7879;48.660;9.116;2024-02-16T07:50:40;7.30;99.90
15556;DHT22;7879;48.660;9.116;2024-02-16T07:53:07;7.40;99.90
15556;DHT22;7879;48.660;9.116;2024-02-16T07:55:36;7.60;99.90
15556;DHT22;7879;48.660;9.116;2024-02-16T07:58:03;7.70;99.90
15556;DHT22;7879;48.660;9.116;2024-02-16T08:00:30;7.90;99.90
15556;DHT22;7879;48.660;9.116;2024-02-16T08:02:57;8.10;99.90
15556;DHT22;7879;48.660;9.116;2024-02-16T08:05:24;8.20;99.90
15556;DHT22;7879;48.660;9.116;2024-02-16T08:07:52;8.30;99.90
15556;DHT22;7879;48.660;9.116;2024-02-16T08:10:20;8.20;99.90
15556;DHT22;7879;48.660;9.116;2024-02-16T08:12:51;8.10;99.90
15556;DHT22;7879;48.660;9.116;2024-02-16T08:15:19;8.10;99.90
15556;DHT22;7879;48.660;9.116;2024-02-16T08:17:51;8.10;99.90
15556;DHT22;7879;48.660;9.116;2024-02-16T08:20:19;8.10;99.90
15556;DHT22;7879;48.660;9.116;2024-02-16T08:22:47;8.20;99.90
15556;DHT22;7879;48.660;9.116;2024-02-16T08:25:14;8.30;99.90
15556;DHT22;7879;48.660;9.116;2024-02-16T08:27:41;8.30;99.90
15556;DHT22;7879;48.660;9.116;2024-02-16T08:30:09;8.40;99.90
15556;DHT22;7879;48.660;9.116;2024-02-16T08:32:36;8.50;99.90
15556;DHT22;7879;48.660;9.116;2024-02-16T08:35:03;8.60;99.90
15556;DHT22;7879;48.660;9.116;2024-02-16T08:37:31;8.70;99.90
15556;DHT22;7879;48.660;9.116;2024-02-16T08:39:58;8.80;99.90
15556;DHT22;7879;48.660;9.116;2024-02-16T08:42:25;8.90;99.90
15556;DHT22;7879;48.660;9.116;2024-02-16T08:44:52;9.00;99.90
15556;DHT22;7879;48.660;9.116;2024-02-16T08:47:19;9.00;99.90
15556;DHT22;7879;48.660;9.116;2024-02-16T08:49:46;9.20;99.90
15556;DHT22;7879;48.660;9.116;2024-02-16T08:52:13;9.40;99.90
15556;DHT22;7879;48.660;9.116;2024-02-16T08:54:43;9.40;99.90
15556;DHT22;7879;48.660;9.116;2024-02-16T08:57:11;9.60;99.90
15556;DHT22;7879;48.660;9.116;2024-02-16T08:59:38;9.70;99.90
15556;DHT22;7879;48.660;9.116;2024-02-16T09:02:06;9.90;99.90
15556;DHT22;7879;48.660;9.116;2024-02-16T09:04:33;10.10;99.90
15556;DHT22;7879;48.660;9.116;2024-02-16T09:07:00;10.20;99.90
15556;DHT22;7879;48.660;9.116;2024-02-16T09:09:28;10.30;99.90
15556;DHT22;7879;48.660;9.116;2024-02-16T09:11:55;10.50;99.90
15556;DHT22;7879;48.660;9.116;2024-02-16T09:14:22;10.50;99.90
15556;DHT22;7879;48.660;9.116;2024-02-16T09:16:49;10.80;99.90
15556;DHT22;7879;48.660;9.116;2024-02-16T09:19:19;11.00;99.90
15556;DHT22;7879;48.660;9.116;2024-02-16T09:21:48;11.30;99.90
15556;DHT22;7879;48.660;9.116;2024-02-16T09:24:16;11.50;99.90
15556;DHT22;7879;48.660;9.116;2024-02-16T09:26:45;11.70;99.90
15556;DHT22;7879;48.660;9.116;2024-02-16T09:29:15;11.80;99.90
15556;DHT22;7879;48.660;9.116;2024-02-16T09:31:42;11.90;99.90
15556;DHT22;7879;48.660;9.116;2024-02-16T09:34:09;12.00;99.90
15556;DHT22;7879;48.660;9.116;2024-02-16T09:36:36;12.30;99.90
15556;DHT22;7879;48.660;9.116;2024-02-16T09:39:04;12.50;99.90
15556;DHT22;7879;48.660;9.116;2024-02-16T09:41:34;12.70;99.90
15556;DHT22;7879;48.660;9.116;2024-02-16T09:44:04;12.90;99.90
15556;DHT22;7879;48.660;9.116;2024-02-16T09:46:32;12.90;99.90
15556;DHT22;7879;48.660;9.116;2024-02-16T09:49:01;12.80;99.90
15556;DHT22;7879;48.660;9.116;2024-02-16T09:51:31;12.80;99.90
15556;DHT22;7879;48.660;9.116;2024-02-16T09:53:58;12.70;99.90
15556;DHT22;7879;48.660;9.116;2024-02-16T09:56:27;12.80;99.90
15556;DHT22;7879;48.660;9.116;2024-02-16T09:58:54;12.80;99.90
15556;DHT22;7879;48.660;9.116;2024-02-16T10:01:24;12.80;99.90
15556;DHT22;7879;48.660;9.116;2024-02-16T10:03:51;12.90;99.90
15556;DHT22;7879;48.660;9.116;2024-02-16T10:06:18;12.90;99.90
15556;DHT22;7879;48.660;9.116;2024-02-16T10:08:52;12.90;99.90
15556;DHT22;7879;48.660;9.116;2024-02-16T10:11:20;12.90;99.90
15556;DHT22;7879;48.660;9.116;2024-02-16T10:13:58;12.90;99.90
15556;DHT22;7879;48.660;9.116;2024-02-16T10:16:25;12.90;99.90
15556;DHT22;7879;48.660;9.116;2024-02-16T10:18:56;12.90;99.90
15556;DHT22;7879;48.660;9.116;2024-02-16T10:21:27;12.90;99.90
15556;DHT22;7879;48.660;9.116;2024-02-16T10:24:00;12.90;99.90
15556;DHT22;7879;48.660;9.116;2024-02-16T10:26:32;12.90;99.90
15556;DHT22;7879;48.660;9.116;2024-02-16T10:28:59;13.00;99.90
15556;DHT22;7879;48.660;9.116;2024-02-16T10:31:26;13.00;99.90
15556;DHT22;7879;48.660;9.116;2024-02-16T10:34:01;12.90;99.90
15556;DHT22;7879;48.660;9.116;2024-02-16T10:36:34;13.00;99.90
15556;DHT22;7879;48.660;9.116;2024-02-16T10:39:03;12.90;99.90
15556;DHT22;7879;48.660;9.116;2024-02-16T10:41:37;13.00;99.90
15556;DHT22;7879;48.660;9.116;2024-02-16T10:44:05;13.00;99.90
15556;DHT22;7879;48.660;9.116;2024-02-16T10:46:34;12.90;99.90
15556;DHT22;7879;48.660;9.116;2024-02-16T10:49:01;12.90;99.90
15556;DHT22;7879;48.660;9.116;2024-02-16T10:51:44;12.90;99.90
15556;DHT22;7879;48.660;9.116;2024-02-16T10:54:15;12.90;99.90
15556;DHT22;7879;48.660;9.116;2024-02-16T10:56:44;12.90;99.90
15556;DHT22;7879;48.660;9.116;2024-02-16T10:59:11;12.90;99.90
15556;DHT22;7879;48.660;9.116;2024-02-16T11:01:43;12.90;99.90
15556;DHT22;7879;48.660;9.116;2024-02-16T11:04:18;12.90;99.90
15556;DHT22;7879;48.660;9.116;2024-02-16T11:07:11;13.00;99.90
15556;DHT22;7879;48.660;9.116;2024-02-16T11:13:28;13.00;99.90
15556;DHT22;7879;48.660;9.116;2024-02-16T11:16:00;13.00;99.90
15556;DHT22;7879;48.660;9.116;2024-02-16T11:18:38;13.10;99.90
15556;DHT22;7879;48.660;9.116;2024-02-16T11:21:06;13.10;99.90
15556;DHT22;7879;48.660;9.116;2024-02-16T11:23:40;13.20;99.90
15556;DHT22;7879;48.660;9.116;2024-02-16T11:26:10;13.20;99.90
15556;DHT22;7879;48.660;9.116;2024-02-16T11:28:40;13.30;99.90
15556;DHT22;7879;48.660;9.116;2024-02-16T11:31:07;13.40;99.90
15556;DHT22;7879;48.660;9.116;2024-02-16T11:33:35;13.50;99.90
15556;DHT22;7879;48.660;9.116;2024-02-16T11:36:06;13.60;99.90
15556;DHT22;7879;48.660;9.116;2024-02-16T11:38:35;13.70;99.90
15556;DHT22;7879;48.660;9.116;2024-02-16T11:41:04;13.80;99.90
15556;DHT22;7879;48.660;9.116;2024-02-16T11:43:32;13.90;99.90
15556;DHT22;7879;48.660;9.116;2024-02-16T11:46:12;14.10;99.90
15556;DHT22;7879;48.660;9.116;2024-02-16T11:48:40;14.40;99.90
15556;DHT22;7879;48.660;9.116;2024-02-16T11:51:07;14.60;99.90
15556;DHT22;7879;48.660;9.116;2024-02-16T11:53:34;14.70;99.90
15556;DHT22;7879;48.660;9.116;2024-02-16T11:56:02;14.70;99.90
15556;DHT22;7879;48.660;9.116;2024-02-16T11:58:30;14.70;99.90
15556;DHT22;7879;48.660;9.116;2024-02-16T12:00:57;14.70;99.90
15556;DHT22;7879;48.660;9.116;2024-02-16T12:03:30;14.80;99.90
15556;DHT22;7879;48.660;9.116;2024-02-16T12:05:58;14.80;99.90
15556;DHT22;7879;48.660;9.116;2024-02-16T12:08:33;14.80;99.90
15556;DHT22;7879;48.660;9.116;2024-02-16T12:11:00;14.90;99.90
15556;DHT22;7879;48.660;9.116;2024-02-16T12:13:28;14.90;99.90
15556;DHT22;7879;48.660;9.116;2024-02-16T12:15:55;15.00;99.90
15556;DHT22;7879;48.660;9.116;2024-02-16T12:18:24;15.00;99.90
15556;DHT22;7879;48.660;9.116;2024-02-16T12:21:03;15.00;99.90
15556;DHT22;7879;48.660;9.116;2024-02-16T12:23:32;14.90;99.90
15556;DHT22;7879;48.660;9.116;2024-02-16T12:26:00;14.90;99.90
15556;DHT22;7879;48.660;9.116;2024-02-16T12:28:31;14.90;99.90
15556;DHT22;7879;48.660;9.116;2024-02-16T12:31:00;14.90;99.90
15556;DHT22;7879;48.660;9.116;2024-02-16T12:33:30;15.00;99.90
15556;DHT22;7879;48.660;9.116;2024-02-16T12:35:57;15.00;99.90
15556;DHT22;7879;48.660;9.116;2024-02-16T12:38:24;15.00;99.90
15556;DHT22;7879;48.660;9.116;2024-02-16T12:40:51;15.00;99.90
15556;DHT22;7879;48.660;9.116;2024-02-16T12:43:18;15.00;99.90
15556;DHT22;7879;48.660;9.116;2024-02-16T12:45:47;15.10;99.90
15556;DHT22;7879;48.660;9.116;2024-02-16T12:48:14;15.10;99.90
15556;DHT22;7879;48.660;9.116;2024-02-16T12:50:42;15.10;99.90
15556;DHT22;7879;48.660;9.116;2024-02-16T12:53:09;15.10;99.90
15556;DHT22;7879;48.660;9.116;2024-02-16T12:55:37;15.10;99.90
15556;DHT22;7879;48.660;9.116;2024-02-16T12:58:04;15.10;99.90
15556;DHT22;7879;48.660;9.116;2024-02-16T13:00:31;15.20;99.90
15556;DHT22;7879;48.660;9.116;2024-02-16T13:02:59;15.20;99.90
15556;DHT22;7879;48.660;9.116;2024-02-16T13:05:26;15.20;99.90
15556;DHT22;7879;48.660;9.116;2024-02-16T13:07:54;15.20;99.90
15556;DHT22;7879;48.660;9.116;2024-02-16T13:10:21;15.10;99.90
15556;DHT22;7879;48.660;9.116;2024-02-16T13:12:48;15.20;99.90
15556;DHT22;7879;48.660;9.116;2024-02-16T13:15:15;15.20;99.90
15556;DHT22;7879;48.660;9.116;2024-02-16T13:17:54;15.20;99.90
15556;DHT22;7879;48.660;9.116;2024-02-16T13:20:22;15.20;99.90
15556;DHT22;7879;48.660;9.116;2024-02-16T13:22:52;15.20;99.90
15556;DHT22;7879;48.660;9.116;2024-02-16T13:25:20;15.20;99.90
15556;DHT22;7879;48.660;9.116;2024-02-16T13:27:48;15.20;99.90
15556;DHT22;7879;48.660;9.116;2024-02-16T13:30:15;15.20;99.90
15556;DHT22;7879;48.660;9.116;2024-02-16T13:32:43;15.20;99.90
15556;DHT22;7879;48.660;9.116;2024-02-16T13:35:10;15.30;99.90
15556;DHT22;7879;48.660;9.116;2024-02-16T13:37:37;15.30;99.90
15556;DHT22;7879;48.660;9.116;2024-02-16T13:40:04;15.30;99.90
15556;DHT22;7879;48.660;9.116;2024-02-16T13:42:34;15.30;99.90
15556;DHT22;7879;48.660;9.116;2024-02-16T13:45:02;15.30;99.90
15556;DHT22;7879;48.660;9.116;2024-02-16T13:47:30;15.30;99.90
15556;DHT22;7879;48.660;9.116;2024-02-16T13:49:58;15.20;99.90
15556;DHT22;7879;48.660;9.116;2024-02-16T13:52:27;15.20;99.90
15556;DHT22;7879;48.660;9.116;2024-02-16T13:54:54;15.20;99.90
15556;DHT22;7879;48.660;9.116;2024-02-16T13:57:21;15.20;99.90
15556;DHT22;7879;48.660;9.116;2024-02-16T13:59:48;15.20;99.90
15556;DHT22;7879;48.660;9.116;2024-02-16T14:02:16;15.10;99.90
15556;DHT22;7879;48.660;9.116;2024-02-16T14:04:43;15.10;99.90
15556;DHT22;7879;48.660;9.116;2024-02-16T14:07:11;15.20;99.90
15556;DHT22;7879;48.660;9.116;2024-02-16T14:09:39;15.10;99.90
15556;DHT22;7879;48.660;9.116;2024-02-16T14:12:08;15.10;99.90
15556;DHT22;7879;48.660;9.116;2024-02-16T14:14:35;15.20;99.90
15556;DHT22;7879;48.660;9.116;2024-02-16T14:17:04;15.20;99.90
15556;DHT22;7879;48.660;9.116;2024-02-16T14:19:32;15.20;99.90
15556;DHT22;7879;48.660;9.116;2024-02-16T14:22:01;15.20;99.90
15556;DHT22;7879;48.660;9.116;2024-02-16T14:24:28;15.20;99.90
15556;DHT22;7879;48.660;9.116;2024-02-16T14:26:56;15.20;99.90
15556;DHT22;7879;48.660;9.116;2024-02-16T14:29:23;15.20;99.90
15556;DHT22;7879;48.660;9.116;2024-02-16T14:31:50;15.20;99.90
15556;DHT22;7879;48.660;9.116;2024-02-16T14:34:17;15.30;99.90
15556;DHT22;7879;48.660;9.116;2024-02-16T14:36:44;15.30;99.90
15556;DHT22;7879;48.660;9.116;2024-02-16T14:39:11;15.20;99.90
15556;DHT22;7879;48.660;9.116;2024-02-16T14:41:39;15.20;99.90
15556;DHT22;7879;48.660;9.116;2024-02-16T14:44:06;15.20;99.90
15556;DHT22;7879;48.660;9.116;2024-02-16T14:46:34;15.20;99.90
15556;DHT22;7879;48.660;9.116;2024-02-16T14:49:01;15.10;99.90
15556;DHT22;7879;48.660;9.116;2024-02-16T14:51:28;15.10;99.90
15556;DHT22;7879;48.660;9.116;2024-02-16T14:53:56;15.10;99.90
15556;DHT22;7879;48.660;9.116;2024-02-16T14:56:23;15.10;99.90
15556;DHT22;7879;48.660;9.116;2024-02-16T14:58:50;15.00;99.90
15556;DHT22;7879;48.660;9.116;2024-02-16T15:01:17;15.00;99.90
15556;DHT22;7879;48.660;9.116;2024-02-16T15:03:44;15.00;99.90
15556;DHT22;7879;48.660;9.116;2024-02-16T15:06:12;15.00;99.90
15556;DHT22;7879;48.660;9.116;2024-02-16T15:08:39;14.90;99.90
15556;DHT22;7879;48.660;9.116;2024-02-16T15:11:06;15.00;99.90
15556;DHT22;7879;48.660;9.116;2024-02-16T15:13:34;14.90;99.90
15556;DHT22;7879;48.660;9.116;2024-02-16T15:16:05;14.90;99.90
15556;DHT22;7879;48.660;9.116;2024-02-16T15:18:32;14.90;99.90
15556;DHT22;7879;48.660;9.116;2024-02-16T15:20:59;14.90;99.90
15556;DHT22;7879;48.660;9.116;2024-02-16T15:23:27;14.90;99.90
15556;DHT22;7879;48.660;9.116;2024-02-16T15:25:54;14.90;99.90
15556;DHT22;7879;48.660;9.116;2024-02-16T15:28:21;14.90;99.90
15556;DHT22;7879;48.660;9.116;2024-02-16T15:30:48;14.90;99.90
15556;DHT22;7879;48.660;9.116;2024-02-16T15:33:15;14.80;99.90
15556;DHT22;7879;48.660;9.116;2024-02-16T15:35:43;14.80;99.90
15556;DHT22;7879;48.660;9.116;2024-02-16T15:38:10;14.80;99.90
15556;DHT22;7879;48.660;9.116;2024-02-16T15:40:37;14.80;99.90
15556;DHT22;7879;48.660;9.116;2024-02-16T15:43:04;14.80;99.90
15556;DHT22;7879;48.660;9.116;2024-02-16T15:45:33;14.80;99.90
15556;DHT22;7879;48.660;9.116;2024-02-16T15:48:08;14.80;99.90
15556;DHT22;7879;48.660;9.116;2024-02-16T15:50:36;14.80;99.90
15556;DHT22;7879;48.660;9.116;2024-02-16T15:53:03;14.70;99.90
15556;DHT22;7879;48.660;9.116;2024-02-16T15:55:31;14.70;99.90
15556;DHT22;7879;48.660;9.116;2024-02-16T15:57:58;14.70;99.90
15556;DHT22;7879;48.660;9.116;2024-02-16T16:00:26;14.70;99.90
15556;DHT22;7879;48.660;9.116;2024-02-16T16:02:53;14.60;99.90
15556;DHT22;7879;48.660;9.116;2024-02-16T16:05:21;14.60;99.90